Time;durP1;ratioP1;P1;durP2;ratioP2;P2;SDS_P1;SDS_P2;PMS_P1;PMS_P2;Temp;Humidity;BMP_temperature;BMP_pressure;BME280_temperature;BME280_humidity;BME280_pressure;Samples;Min_cycle;Max_cycle;Signal;HPM_P1;HPM_P2
2023/03/07 00:03:55;;;;;;;10.63;5.03;;;;;;;;;;10310580;28;20223;-78
2023/03/07 00:08:58;;;;;;;12.20;6.07;;;;;;;;;;10315168;28;20235;-79
2023/03/07 00:13:59;;;;;;;14.90;7.65;;;;;;;;;;10330745;28;20221;-83
2023/03/07 00:19:00;;;;;;;14.13;7.25;;;;;;;;;;10335957;28;20310;-80
2023/03/07 00:24:01;;;;;;;17.77;7.80;;;;;;;;;;10333893;28;20224;-79
2023/03/07 00:29:02;;;;;;;13.63;6.57;;;;;;;;;;10342055;28;20238;-82
2023/03/07 00:34:03;;;;;;;17.17;7.30;;;;;;;;;;10338803;28;20251;-82
2023/03/07 00:39:05;;;;;;;15.55;6.93;;;;;;;;;;10333426;28;20294;-78
2023/03/07 00:44:06;;;;;;;18.88;6.93;;;;;;;;;;10323100;28;20220;-79
2023/03/07 00:49:07;;;;;;;14.38;7.60;;;;;;;;;;10320412;28;20226;-79
2023/03/07 00:54:08;;;;;;;17.33;8.18;;;;;;;;;;10307253;28;20878;-81
2023/03/07 00:59:10;;;;;;;18.40;8.18;;;;;;;;;;10333184;28;20314;-78
2023/03/07 01:04:11;;;;;;;16.35;8.43;;;;;;;;;;10337403;28;20217;-79
2023/03/07 01:09:12;;;;;;;20.60;9.27;;;;;;;;;;10325138;28;20246;-78
2023/03/07 01:14:13;;;;;;;16.38;6.97;;;;;;;;;;10329456;28;20220;-79
2023/03/07 01:19:14;;;;;;;11.70;7.18;;;;;;;;;;10346746;28;20224;-80
2023/03/07 01:24:16;;;;;;;19.75;8.35;;;;;;;;;;10342457;28;20220;-81
2023/03/07 01:29:17;;;;;;;18.05;8.13;;;;;;;;;;10325936;28;20224;-83
2023/03/07 01:34:18;;;;;;;17.90;7.68;;;;;;;;;;10342210;28;20245;-79
2023/03/07 01:39:20;;;;;;;17.75;8.13;;;;;;;;;;10332567;28;20236;-81
2023/03/07 01:44:29;;;;;;;17.70;8.00;;;;;;;;;;10334859;28;20355;-79
2023/03/07 01:49:34;;;;;;;14.05;7.05;;;;;;;;;;10328486;28;20217;-80
2023/03/07 01:54:40;;;;;;;26.98;9.60;;;;;;;;;;10346719;28;20220;-79
2023/03/07 01:59:44;;;;;;;15.27;7.30;;;;;;;;;;10357909;28;20688;-78
2023/03/07 02:04:48;;;;;;;15.98;7.78;;;;;;;;;;10380275;28;20227;-84
2023/03/07 02:09:49;;;;;;;17.95;8.00;;;;;;;;;;10366323;28;20691;-80
2023/03/07 02:14:51;;;;;;;19.88;8.25;;;;;;;;;;10367310;28;20220;-81
2023/03/07 02:20:01;;;;;;;19.00;8.13;;;;;;;;;;10359751;28;20573;-81
2023/03/07 02:25:07;;;;;;;15.23;7.13;;;;;;;;;;10343495;28;20224;-82
2023/03/07 02:30:09;;;;;;;15.68;6.82;;;;;;;;;;10370447;28;20226;-83
2023/03/07 02:35:13;;;;;;;11.98;6.22;;;;;;;;;;10358132;28;20281;-81
2023/03/07 02:40:16;;;;;;;15.48;7.47;;;;;;;;;;10379034;28;20200;-82
2023/03/07 02:45:18;;;;;;;23.00;8.13;;;;;;;;;;10375152;28;20243;-84
2023/03/07 02:50:19;;;;;;;17.27;7.80;;;;;;;;;;10356024;28;20689;-80
2023/03/07 02:55:24;;;;;;;15.95;7.40;;;;;;;;;;10372576;28;20989;-78
2023/03/07 03:00:32;;;;;;;16.58;7.63;;;;;;;;;;10357151;28;20247;-80
2023/03/07 03:05:33;;;;;;;16.05;8.25;;;;;;;;;;10367369;28;20226;-81
2023/03/07 03:10:34;;;;;;;13.93;7.55;;;;;;;;;;10360655;28;20254;-82
2023/03/07 03:15:36;;;;;;;16.65;5.75;;;;;;;;;;10372612;28;20302;-82
2023/03/07 03:20:41;;;;;;;19.33;7.65;;;;;;;;;;10356709;28;20277;-83
2023/03/07 03:25:42;;;;;;;17.95;7.68;;;;;;;;;;10355699;28;20654;-81
2023/03/07 03:30:43;;;;;;;14.00;6.03;;;;;;;;;;10362828;28;20623;-82
2023/03/07 03:35:45;;;;;;;7.20;4.93;;;;;;;;;;10348635;28;20238;-82
2023/03/07 03:40:46;;;;;;;12.40;6.18;;;;;;;;;;10376353;28;20735;-81
2023/03/07 03:45:57;;;;;;;8.73;5.47;;;;;;;;;;10355091;28;20704;-83
2023/03/07 03:51:03;;;;;;;13.50;6.15;;;;;;;;;;10369294;28;20223;-81
2023/03/07 03:56:05;;;;;;;12.18;5.72;;;;;;;;;;10359013;28;20227;-80
2023/03/07 04:01:08;;;;;;;8.88;4.88;;;;;;;;;;10376832;28;20219;-82
2023/03/07 04:06:12;;;;;;;16.67;6.00;;;;;;;;;;10347905;28;20355;-82
2023/03/07 04:11:13;;;;;;;9.73;4.43;;;;;;;;;;10345183;28;20220;-81
2023/03/07 04:16:14;;;;;;;7.47;3.78;;;;;;;;;;10362476;28;20224;-83
2023/03/07 04:21:16;;;;;;;5.85;4.22;;;;;;;;;;10374460;28;20749;-81
2023/03/07 04:26:17;;;;;;;10.05;4.47;;;;;;;;;;10385485;28;20220;-80
2023/03/07 04:31:20;;;;;;;8.55;4.53;;;;;;;;;;10375742;28;20215;-83
2023/03/07 04:36:24;;;;;;;5.45;3.80;;;;;;;;;;10365613;28;22072;-83
2023/03/07 04:41:26;;;;;;;8.75;4.15;;;;;;;;;;10381001;28;20212;-80
2023/03/07 04:46:32;;;;;;;5.82;3.33;;;;;;;;;;10369023;28;20231;-80
2023/03/07 04:51:33;;;;;;;4.15;3.15;;;;;;;;;;10376165;28;20220;-82
2023/03/07 04:56:34;;;;;;;5.72;3.60;;;;;;;;;;10375321;28;20219;-82
2023/03/07 05:01:36;;;;;;;3.78;2.80;;;;;;;;;;10366303;28;20219;-83
2023/03/07 05:06:38;;;;;;;4.80;3.20;;;;;;;;;;10379820;28;20226;-82
2023/03/07 05:11:41;;;;;;;3.45;3.15;;;;;;;;;;10366545;28;20227;-83
2023/03/07 05:16:42;;;;;;;4.45;2.78;;;;;;;;;;10365334;28;20239;-82
2023/03/07 05:21:43;;;;;;;4.97;2.85;;;;;;;;;;10357037;28;20305;-83
2023/03/07 05:26:44;;;;;;;2.42;2.33;;;;;;;;;;10368309;28;20239;-81
2023/03/07 05:31:45;;;;;;;2.83;2.30;;;;;;;;;;10381347;28;20224;-81
2023/03/07 05:36:47;;;;;;;4.03;3.05;;;;;;;;;;10382496;28;20222;-79
2023/03/07 05:41:49;;;;;;;2.67;2.45;;;;;;;;;;10382138;28;20211;-83
2023/03/07 05:46:51;;;;;;;2.88;2.42;;;;;;;;;;10368535;28;20242;-83
2023/03/07 05:51:52;;;;;;;3.30;2.95;;;;;;;;;;10358931;28;20322;-82
2023/03/07 05:56:55;;;;;;;1.90;1.70;;;;;;;;;;10368131;28;20231;-82
2023/03/07 06:01:56;;;;;;;1.65;1.55;;;;;;;;;;10360440;28;20305;-82
2023/03/07 06:06:58;;;;;;;3.25;2.80;;;;;;;;;;10371607;28;20224;-82
2023/03/07 06:12:00;;;;;;;3.97;2.65;;;;;;;;;;10365362;28;20220;-82
2023/03/07 06:17:06;;;;;;;2.85;2.45;;;;;;;;;;10432562;22;20711;-82
2023/03/07 06:29:25;;;;;;;1.65;1.55;;;;;;;;;;10398952;28;20278;-79
2023/03/07 06:34:26;;;;;;;3.20;2.90;;;;;;;;;;10402400;28;20225;-82
2023/03/07 06:39:28;;;;;;;2.83;2.63;;;;;;;;;;10418387;28;20767;-82
2023/03/07 06:44:30;;;;;;;3.70;2.38;;;;;;;;;;10416197;28;20243;-83
2023/03/07 06:49:31;;;;;;;2.45;2.25;;;;;;;;;;10406991;28;20223;-84
2023/03/07 06:54:32;;;;;;;2.50;2.30;;;;;;;;;;10406966;28;20227;-82
2023/03/07 06:59:33;;;;;;;2.38;2.17;;;;;;;;;;10416235;28;20215;-83
2023/03/07 07:04:35;;;;;;;3.65;2.28;;;;;;;;;;10419123;28;20322;-84
2023/03/07 07:09:36;;;;;;;4.28;3.63;;;;;;;;;;10425547;28;20646;-82
2023/03/07 07:14:37;;;;;;;5.20;2.95;;;;;;;;;;10407292;28;20266;-84
2023/03/07 07:19:39;;;;;;;2.47;2.28;;;;;;;;;;10448920;28;20908;-83
2023/03/07 07:24:40;;;;;;;2.28;2.15;;;;;;;;;;10427205;28;21332;-84
2023/03/07 07:29:42;;;;;;;2.97;2.35;;;;;;;;;;10429088;28;20271;-83
2023/03/07 07:34:44;;;;;;;2.03;1.92;;;;;;;;;;10449057;28;20313;-82
2023/03/07 07:39:45;;;;;;;3.30;2.33;;;;;;;;;;10428381;28;20227;-84
2023/03/07 07:44:47;;;;;;;1.60;1.55;;;;;;;;;;10447246;28;20591;-82
2023/03/07 07:49:48;;;;;;;2.30;2.05;;;;;;;;;;10444831;28;20221;-81
2023/03/07 07:54:49;;;;;;;2.67;2.22;;;;;;;;;;10449617;28;20769;-83
2023/03/07 07:59:51;;;;;;;1.85;1.77;;;;;;;;;;10428233;28;20260;-84
2023/03/07 08:04:52;;;;;;;2.25;2.15;;;;;;;;;;10431069;28;20354;-82
2023/03/07 08:09:53;;;;;;;1.95;1.70;;;;;;;;;;10436758;28;20218;-82
2023/03/07 08:14:54;;;;;;;2.80;2.13;;;;;;;;;;10439885;28;20775;-83
2023/03/07 08:20:00;;;;;;;5.25;2.38;;;;;;;;;;10458032;28;20230;-82
2023/03/07 08:25:01;;;;;;;2.55;2.35;;;;;;;;;;10458719;28;20233;-83
2023/03/07 08:30:02;;;;;;;3.00;2.17;;;;;;;;;;10467598;28;20219;-81
2023/03/07 08:35:03;;;;;;;4.07;1.42;;;;;;;;;;10500378;28;20225;-83
2023/03/07 08:40:04;;;;;;;2.28;2.10;;;;;;;;;;10447460;28;20201;-83
2023/03/07 08:45:05;;;;;;;3.55;2.38;;;;;;;;;;10451978;28;20305;-82
2023/03/07 08:50:07;;;;;;;2.10;1.95;;;;;;;;;;10468658;28;20195;-83
2023/03/07 08:55:08;;;;;;;1.35;1.25;;;;;;;;;;10455749;28;20687;-83
2023/03/07 09:00:11;;;;;;;1.80;1.70;;;;;;;;;;10454136;28;20276;-82
2023/03/07 09:05:12;;;;;;;1.63;1.58;;;;;;;;;;10449946;28;20912;-80
2023/03/07 09:10:13;;;;;;;1.80;1.48;;;;;;;;;;10459358;28;20183;-82
2023/03/07 09:15:14;;;;;;;1.60;1.17;;;;;;;;;;10471259;28;20226;-82
2023/03/07 09:20:15;;;;;;;1.13;1.13;;;;;;;;;;10452465;28;20211;-81
2023/03/07 09:30:53;;;;;;;1.10;1.10;;;;;;;;;;10531839;22;20484;-85
2023/03/07 09:36:12;;;;;;;0.98;0.98;;;;;;;;;;10514907;28;20259;-81
2023/03/07 09:41:29;;;;;;;0.88;0.88;;;;;;;;;;10516173;28;20219;-81
2023/03/07 09:46:42;;;;;;;0.82;0.82;;;;;;;;;;10528576;28;20225;-85
2023/03/07 09:51:44;;;;;;;0.80;0.80;;;;;;;;;;10510137;28;20234;-82
2023/03/07 09:56:55;;;;;;;0.70;0.70;;;;;;;;;;10490583;28;20320;-83
2023/03/07 10:02:04;;;;;;;0.60;0.60;;;;;;;;;;10487956;28;20221;-83
2023/03/07 10:07:08;;;;;;;0.88;0.88;;;;;;;;;;10465839;28;21142;-83
2023/03/07 10:12:25;;;;;;;0.73;0.73;;;;;;;;;;10507972;28;20236;-83
2023/03/07 10:17:48;;;;;;;0.50;0.50;;;;;;;;;;10461625;28;20222;-83
2023/03/07 10:23:07;;;;;;;0.75;0.70;;;;;;;;;;10482885;28;20249;-83
2023/03/07 10:28:18;;;;;;;0.30;0.30;;;;;;;;;;10493643;28;20213;-85
2023/03/07 10:33:20;;;;;;;0.20;0.20;;;;;;;;;;10485632;28;20264;-83
2023/03/07 10:38:28;;;;;;;0.85;0.20;;;;;;;;;;10457043;28;20264;-83
2023/03/07 10:43:33;;;;;;;0.60;0.20;;;;;;;;;;10451598;28;20217;-82
2023/03/07 10:48:37;;;;;;;0.30;0.20;;;;;;;;;;10480767;28;20845;-83
2023/03/07 10:53:38;;;;;;;0.20;0.20;;;;;;;;;;10499501;28;20222;-81
2023/03/07 10:58:40;;;;;;;0.10;0.10;;;;;;;;;;10486389;28;20271;-79
2023/03/07 11:03:50;;;;;;;0.20;0.20;;;;;;;;;;10485739;28;20917;-84
2023/03/07 11:08:51;;;;;;;3.63;0.40;;;;;;;;;;10487019;28;20225;-83
2023/03/07 11:14:09;;;;;;;1.00;0.20;;;;;;;;;;10480122;28;20225;-81
2023/03/07 11:19:27;;;;;;;1.90;0.20;;;;;;;;;;10474096;28;20218;-81
2023/03/07 11:24:36;;;;;;;3.30;0.40;;;;;;;;;;10465539;28;20224;-82
2023/03/07 11:29:37;;;;;;;1.65;0.40;;;;;;;;;;10501909;28;20312;-83
2023/03/07 11:34:38;;;;;;;0.40;0.40;;;;;;;;;;10484607;28;20220;-82
2023/03/07 11:39:58;;;;;;;1.38;0.30;;;;;;;;;;10494479;28;20220;-82
2023/03/07 11:45:03;;;;;;;0.47;0.30;;;;;;;;;;10509144;28;20605;-82
2023/03/07 11:50:10;;;;;;;0.35;0.32;;;;;;;;;;10491224;28;20400;-83
2023/03/07 11:55:20;;;;;;;0.75;0.40;;;;;;;;;;10488535;28;20230;-82
2023/03/07 12:00:27;;;;;;;4.32;0.45;;;;;;;;;;10478058;28;20186;-82
2023/03/07 12:05:43;;;;;;;0.55;0.40;;;;;;;;;;10482569;28;20210;-81
2023/03/07 12:10:50;;;;;;;1.10;0.40;;;;;;;;;;10465032;28;20212;-80
2023/03/07 12:16:10;;;;;;;0.88;0.30;;;;;;;;;;10498441;28;20252;-85
2023/03/07 12:21:17;;;;;;;0.65;0.30;;;;;;;;;;10478157;28;20220;-84
2023/03/07 12:26:22;;;;;;;0.32;0.32;;;;;;;;;;10471037;28;20226;-83
2023/03/07 12:31:29;;;;;;;1.65;0.25;;;;;;;;;;10468292;28;20222;-85
2023/03/07 12:36:38;;;;;;;0.32;0.32;;;;;;;;;;10484981;28;20217;-80
2023/03/07 12:41:49;;;;;;;0.60;0.60;;;;;;;;;;10498211;28;20206;-81
2023/03/07 12:46:56;;;;;;;0.47;0.40;;;;;;;;;;10488145;28;20761;-80
2023/03/07 12:52:00;;;;;;;0.60;0.40;;;;;;;;;;10484576;28;20280;-81
2023/03/07 12:57:03;;;;;;;0.38;0.38;;;;;;;;;;10502330;28;20255;-83
2023/03/07 13:02:10;;;;;;;0.47;0.35;;;;;;;;;;10475522;28;20226;-81
2023/03/07 13:07:12;;;;;;;0.30;0.20;;;;;;;;;;10493642;28;20305;-85
2023/03/07 13:12:22;;;;;;;0.30;0.30;;;;;;;;;;10480189;28;20301;-83
2023/03/07 13:17:26;;;;;;;1.55;0.30;;;;;;;;;;10489273;28;20296;-83
2023/03/07 13:22:27;;;;;;;0.20;0.20;;;;;;;;;;10490179;28;20210;-84
2023/03/07 13:27:40;;;;;;;0.20;0.20;;;;;;;;;;10500205;28;20213;-84
2023/03/07 13:32:50;;;;;;;0.20;0.20;;;;;;;;;;10475815;28;20974;-83
2023/03/07 13:38:12;;;;;;;0.52;0.10;;;;;;;;;;10473919;28;20214;-82
2023/03/07 13:43:19;;;;;;;0.40;0.10;;;;;;;;;;10473533;28;20257;-83
2023/03/07 13:48:29;;;;;;;0.35;0.25;;;;;;;;;;10492436;28;20257;-83
2023/03/07 13:53:35;;;;;;;0.20;0.20;;;;;;;;;;10479105;28;20316;-83
2023/03/07 13:58:44;;;;;;;1.17;0.25;;;;;;;;;;10506875;28;20638;-83
2023/03/07 14:03:46;;;;;;;0.20;0.20;;;;;;;;;;10489562;28;20218;-82
2023/03/07 14:08:50;;;;;;;0.35;0.20;;;;;;;;;;10477955;28;20241;-81
2023/03/07 14:14:10;;;;;;;0.47;0.20;;;;;;;;;;10497189;28;20222;-85
2023/03/07 14:19:21;;;;;;;0.15;0.15;;;;;;;;;;10485089;28;20225;-84
2023/03/07 14:24:22;;;;;;;0.20;0.20;;;;;;;;;;10478758;28;20218;-83
2023/03/07 14:29:30;;;;;;;0.40;0.40;;;;;;;;;;10474002;28;20221;-83
2023/03/07 14:34:33;;;;;;;0.30;0.30;;;;;;;;;;10470386;28;20220;-83
2023/03/07 14:39:51;;;;;;;0.35;0.35;;;;;;;;;;10491447;28;20214;-83
2023/03/07 15:39:20;;;;;;;;;;;;;;;;;;;;;
2023/03/07 15:45:39;;;;;;;;;;;;;;;;;;;;;
2023/03/07 16:10:33;;;;;;;1.50;1.08;;;;;;;;;;2837312;26;20928;-83
2023/03/07 16:15:34;;;;;;;0.40;0.40;;;;;;;;;;10407574;28;20668;-83
2023/03/07 16:20:35;;;;;;;0.77;0.55;;;;;;;;;;10360177;28;20223;-82
2023/03/07 16:25:36;;;;;;;0.50;0.50;;;;;;;;;;10381739;28;20227;-83
2023/03/07 16:30:37;;;;;;;1.23;0.47;;;;;;;;;;10376109;28;20223;-82
2023/03/07 16:35:39;;;;;;;2.15;0.77;;;;;;;;;;10394067;28;20345;-82
2023/03/07 16:40:42;;;;;;;0.50;0.50;;;;;;;;;;10395853;28;20283;-83
2023/03/07 16:45:43;;;;;;;1.05;0.52;;;;;;;;;;10402015;28;20246;-85
2023/03/07 16:50:43;;;;;;;0.80;0.70;;;;;;;;;;10443058;28;20286;-83
2023/03/07 16:55:45;;;;;;;0.40;0.40;;;;;;;;;;10419155;28;20230;-82
2023/03/07 17:00:46;;;;;;;0.43;0.40;;;;;;;;;;10439436;28;20229;-84
2023/03/07 17:05:47;;;;;;;0.38;0.38;;;;;;;;;;10433014;28;20214;-84
2023/03/07 17:10:48;;;;;;;0.70;0.30;;;;;;;;;;10417459;28;21399;-83
2023/03/07 17:15:49;;;;;;;0.30;0.30;;;;;;;;;;10420587;28;20226;-84
2023/03/07 17:20:50;;;;;;;0.32;0.32;;;;;;;;;;10417753;28;20303;-81
2023/03/07 17:25:51;;;;;;;0.20;0.20;;;;;;;;;;10409702;28;20225;-83
2023/03/07 17:30:52;;;;;;;0.28;0.28;;;;;;;;;;10410612;28;20227;-83
2023/03/07 17:35:55;;;;;;;0.10;0.10;;;;;;;;;;10404560;28;20242;-82
2023/03/07 17:40:56;;;;;;;0.25;0.20;;;;;;;;;;10419753;28;20726;-84
2023/03/07 17:45:57;;;;;;;2.63;0.50;;;;;;;;;;10410637;28;21414;-82
2023/03/07 17:50:58;;;;;;;0.22;0.22;;;;;;;;;;10389580;28;20222;-84
2023/03/07 17:56:05;;;;;;;2.35;0.40;;;;;;;;;;10410313;28;20233;-82
2023/03/07 18:01:07;;;;;;;0.40;0.40;;;;;;;;;;10406706;28;20276;-83
2023/03/07 18:06:08;;;;;;;1.85;0.40;;;;;;;;;;10428119;28;20254;-82
2023/03/07 18:11:10;;;;;;;1.65;0.30;;;;;;;;;;10407424;28;20215;-83
2023/03/07 18:16:11;;;;;;;1.80;0.50;;;;;;;;;;10389539;28;20561;-84
2023/03/07 18:21:15;;;;;;;0.30;0.20;;;;;;;;;;10383146;28;20305;-82
2023/03/07 18:26:17;;;;;;;3.38;0.30;;;;;;;;;;10383434;28;20222;-84
2023/03/07 18:31:20;;;;;;;1.65;1.45;;;;;;;;;;10372164;28;20219;-82
2023/03/07 18:36:22;;;;;;;5.25;2.63;;;;;;;;;;10409164;28;21817;-83
2023/03/07 18:41:25;;;;;;;5.15;2.13;;;;;;;;;;10416584;28;20222;-83
2023/03/07 18:46:31;;;;;;;7.43;3.03;;;;;;;;;;10413322;28;21218;-84
2023/03/07 18:51:32;;;;;;;6.20;2.63;;;;;;;;;;10412256;28;20234;-80
2023/03/07 18:56:33;;;;;;;4.50;2.30;;;;;;;;;;10380390;28;20362;-83
2023/03/07 19:01:35;;;;;;;4.22;1.80;;;;;;;;;;10377303;28;20305;-82
2023/03/07 19:06:38;;;;;;;0.77;0.60;;;;;;;;;;10395002;28;20230;-85
2023/03/07 19:11:39;;;;;;;1.00;1.00;;;;;;;;;;10425728;28;20267;-84
2023/03/07 19:16:40;;;;;;;1.58;0.70;;;;;;;;;;10393782;28;20400;-82
2023/03/07 19:21:41;;;;;;;1.02;0.60;;;;;;;;;;10388966;28;20444;-85
2023/03/07 19:26:42;;;;;;;4.82;0.70;;;;;;;;;;10391066;28;20219;-83
2023/03/07 19:31:43;;;;;;;1.42;0.52;;;;;;;;;;10399979;28;20211;-84
2023/03/07 19:36:44;;;;;;;4.47;0.45;;;;;;;;;;10382910;28;20245;-85
2023/03/07 19:41:46;;;;;;;0.20;0.20;;;;;;;;;;10399494;28;20249;-83
2023/03/07 19:46:47;;;;;;;2.60;0.30;;;;;;;;;;10397415;28;20265;-83
2023/03/07 19:51:48;;;;;;;0.47;0.47;;;;;;;;;;10372898;28;20304;-86
2023/03/07 19:56:50;;;;;;;1.05;0.30;;;;;;;;;;10394171;28;20265;-85
2023/03/07 20:01:51;;;;;;;0.60;0.30;;;;;;;;;;10405805;28;20575;-86
2023/03/07 20:06:52;;;;;;;1.85;0.60;;;;;;;;;;10402805;28;20226;-85
2023/03/07 20:11:54;;;;;;;2.15;0.35;;;;;;;;;;10409414;28;20635;-86
2023/03/07 20:16:55;;;;;;;1.67;0.70;;;;;;;;;;10406238;28;20305;-85
2023/03/07 20:21:56;;;;;;;1.27;0.70;;;;;;;;;;10390324;28;20953;-83
2023/03/07 20:26:57;;;;;;;2.15;1.00;;;;;;;;;;10416805;28;20868;-85
2023/03/07 20:32:00;;;;;;;0.55;0.55;;;;;;;;;;10410373;28;20753;-87
2023/03/07 20:37:01;;;;;;;1.30;1.20;;;;;;;;;;10421257;28;20241;-85
2023/03/07 20:42:02;;;;;;;3.28;0.93;;;;;;;;;;10416208;28;20426;-85
2023/03/07 20:47:03;;;;;;;1.13;1.13;;;;;;;;;;10417162;28;20223;-83
2023/03/07 20:52:04;;;;;;;7.70;1.85;;;;;;;;;;10404132;28;20559;-83
2023/03/07 20:57:05;;;;;;;1.55;1.48;;;;;;;;;;10396440;28;20223;-83
2023/03/07 21:02:06;;;;;;;2.17;2.00;;;;;;;;;;10403600;28;21889;-84
2023/03/07 21:07:07;;;;;;;3.08;2.88;;;;;;;;;;10405560;28;20223;-80
2023/03/07 21:12:10;;;;;;;2.25;2.08;;;;;;;;;;10395780;28;20211;-82
2023/03/07 21:17:11;;;;;;;3.53;2.97;;;;;;;;;;10403108;28;20902;-82
2023/03/07 21:22:13;;;;;;;3.20;2.60;;;;;;;;;;10413472;28;20234;-82
2023/03/07 21:27:14;;;;;;;2.45;2.22;;;;;;;;;;10401481;28;20787;-83
2023/03/07 21:32:15;;;;;;;6.90;2.35;;;;;;;;;;10401060;28;20420;-83
2023/03/07 21:37:16;;;;;;;6.90;2.83;;;;;;;;;;10402970;28;21169;-82
2023/03/07 21:42:17;;;;;;;1.90;1.58;;;;;;;;;;10404781;28;22081;-83
2023/03/07 21:47:18;;;;;;;1.50;1.48;;;;;;;;;;10416674;28;20214;-82
2023/03/07 21:52:19;;;;;;;1.42;1.25;;;;;;;;;;10409530;28;20224;-84
2023/03/07 21:57:20;;;;;;;0.77;0.65;;;;;;;;;;10393536;28;20233;-84
2023/03/07 22:02:22;;;;;;;0.50;0.50;;;;;;;;;;10404227;28;20257;-84
2023/03/07 22:07:23;;;;;;;0.20;0.20;;;;;;;;;;10393305;28;20254;-83
2023/03/07 22:12:24;;;;;;;1.48;0.43;;;;;;;;;;10401811;28;20309;-83
2023/03/07 22:17:25;;;;;;;1.60;0.40;;;;;;;;;;10416887;28;20215;-81
2023/03/07 22:22:26;;;;;;;0.65;0.52;;;;;;;;;;10395692;28;23583;-82
2023/03/07 22:27:27;;;;;;;7.85;0.47;;;;;;;;;;10411732;28;20592;-79
2023/03/07 22:32:28;;;;;;;0.30;0.30;;;;;;;;;;10419558;28;20227;-81
2023/03/07 22:37:29;;;;;;;5.82;0.65;;;;;;;;;;10403028;28;20633;-81
2023/03/07 22:42:30;;;;;;;1.02;0.30;;;;;;;;;;10410846;28;20748;-82
2023/03/07 22:47:31;;;;;;;2.30;0.40;;;;;;;;;;10382829;28;20793;-82
2023/03/07 22:52:32;;;;;;;9.57;0.47;;;;;;;;;;10402847;28;20687;-82
2023/03/07 22:57:33;;;;;;;1.55;0.30;;;;;;;;;;10404583;28;20575;-82
2023/03/07 23:02:34;;;;;;;0.63;0.30;;;;;;;;;;10403836;28;20280;-81
2023/03/07 23:07:35;;;;;;;3.92;0.93;;;;;;;;;;10411341;28;20254;-83
2023/03/07 23:12:36;;;;;;;0.30;0.30;;;;;;;;;;10391202;28;20227;-83
2023/03/07 23:17:37;;;;;;;2.25;0.30;;;;;;;;;;10378618;28;20301;-83
2023/03/07 23:22:39;;;;;;;0.73;0.25;;;;;;;;;;10396965;28;20273;-82
2023/03/07 23:27:40;;;;;;;1.85;0.30;;;;;;;;;;10420413;28;20230;-81
2023/03/07 23:32:41;;;;;;;0.20;0.20;;;;;;;;;;10406009;28;21052;-81
2023/03/07 23:37:42;;;;;;;0.20;0.20;;;;;;;;;;10408482;28;20222;-82
2023/03/07 23:42:43;;;;;;;0.40;0.38;;;;;;;;;;10416512;28;20215;-81
2023/03/07 23:47:44;;;;;;;0.30;0.30;;;;;;;;;;10409298;28;20234;-80
2023/03/07 23:52:45;;;;;;;0.20;0.20;;;;;;;;;;10382583;28;20244;-79
2023/03/07 23:57:47;;;;;;;0.30;0.30;;;;;;;;;;10390304;28;20238;-81
